sensor_id;sensor_type;location;lat;lon;timestamp;P1;durP1;ratioP1;P2;durP2;ratioP2
59442;SDS011;45247;47.466;19.004;2023-12-29T00:01:55;34.22;;;17.92;;
59442;SDS011;45247;47.466;19.004;2023-12-29T00:05:22;40.47;;;19.92;;
59442;SDS011;45247;47.466;19.004;2023-12-29T00:08:50;23.75;;;16.05;;
59442;SDS011;45247;47.466;19.004;2023-12-29T00:12:16;31.92;;;17.48;;
59442;SDS011;45247;47.466;19.004;2023-12-29T00:15:51;28.55;;;16.42;;
59442;SDS011;45247;47.466;19.004;2023-12-29T00:19:17;31.13;;;17.60;;
59442;SDS011;45247;47.466;19.004;2023-12-29T00:23:03;30.40;;;15.30;;
59442;SDS011;45247;47.466;19.004;2023-12-29T00:26:31;32.03;;;18.15;;
59442;SDS011;45247;47.466;19.004;2023-12-29T00:29:58;31.45;;;18.08;;
59442;SDS011;45247;47.466;19.004;2023-12-29T00:33:28;33.28;;;18.27;;
59442;SDS011;45247;47.466;19.004;2023-12-29T00:36:55;26.30;;;14.75;;
59442;SDS011;45247;47.466;19.004;2023-12-29T00:40:23;33.97;;;18.80;;
59442;SDS011;45247;47.466;19.004;2023-12-29T00:43:50;28.33;;;17.23;;
59442;SDS011;45247;47.466;19.004;2023-12-29T00:47:17;34.63;;;17.73;;
59442;SDS011;45247;47.466;19.004;2023-12-29T00:50:44;30.90;;;17.73;;
59442;SDS011;45247;47.466;19.004;2023-12-29T00:54:11;26.10;;;15.40;;
59442;SDS011;45247;47.466;19.004;2023-12-29T00:57:39;25.70;;;16.15;;
59442;SDS011;45247;47.466;19.004;2023-12-29T01:01:06;27.23;;;15.48;;
59442;SDS011;45247;47.466;19.004;2023-12-29T01:04:33;25.80;;;15.20;;
59442;SDS011;45247;47.466;19.004;2023-12-29T01:08:00;33.42;;;16.50;;
59442;SDS011;45247;47.466;19.004;2023-12-29T01:11:26;30.23;;;18.45;;
59442;SDS011;45247;47.466;19.004;2023-12-29T01:14:54;35.28;;;21.60;;
59442;SDS011;45247;47.466;19.004;2023-12-29T01:18:21;41.83;;;21.33;;
59442;SDS011;45247;47.466;19.004;2023-12-29T01:21:48;31.02;;;16.88;;
59442;SDS011;45247;47.466;19.004;2023-12-29T01:25:14;33.28;;;18.38;;
59442;SDS011;45247;47.466;19.004;2023-12-29T01:28:41;33.88;;;17.80;;
59442;SDS011;45247;47.466;19.004;2023-12-29T01:32:09;36.95;;;17.65;;
59442;SDS011;45247;47.466;19.004;2023-12-29T01:35:36;28.40;;;15.25;;
59442;SDS011;45247;47.466;19.004;2023-12-29T01:39:03;33.80;;;19.13;;
59442;SDS011;45247;47.466;19.004;2023-12-29T01:42:30;29.88;;;16.98;;
59442;SDS011;45247;47.466;19.004;2023-12-29T01:45:57;28.73;;;15.27;;
59442;SDS011;45247;47.466;19.004;2023-12-29T01:49:27;35.35;;;19.65;;
59442;SDS011;45247;47.466;19.004;2023-12-29T01:52:55;31.27;;;18.52;;
59442;SDS011;45247;47.466;19.004;2023-12-29T01:56:23;29.73;;;17.15;;
59442;SDS011;45247;47.466;19.004;2023-12-29T01:59:50;30.10;;;17.23;;
59442;SDS011;45247;47.466;19.004;2023-12-29T02:03:17;36.20;;;18.90;;
59442;SDS011;45247;47.466;19.004;2023-12-29T02:06:46;28.23;;;17.13;;
59442;SDS011;45247;47.466;19.004;2023-12-29T02:10:14;29.60;;;17.90;;
59442;SDS011;45247;47.466;19.004;2023-12-29T02:13:41;34.33;;;18.48;;
59442;SDS011;45247;47.466;19.004;2023-12-29T02:17:08;33.28;;;17.23;;
59442;SDS011;45247;47.466;19.004;2023-12-29T02:20:41;27.48;;;16.60;;
59442;SDS011;45247;47.466;19.004;2023-12-29T02:24:10;30.35;;;17.50;;
59442;SDS011;45247;47.466;19.004;2023-12-29T02:27:41;35.15;;;18.23;;
59442;SDS011;45247;47.466;19.004;2023-12-29T02:31:13;29.80;;;16.55;;
59442;SDS011;45247;47.466;19.004;2023-12-29T02:34:44;27.67;;;15.40;;
59442;SDS011;45247;47.466;19.004;2023-12-29T02:38:13;27.65;;;15.63;;
59442;SDS011;45247;47.466;19.004;2023-12-29T02:41:41;26.92;;;15.90;;
59442;SDS011;45247;47.466;19.004;2023-12-29T02:45:12;26.83;;;15.25;;
59442;SDS011;45247;47.466;19.004;2023-12-29T02:48:38;24.73;;;14.52;;
59442;SDS011;45247;47.466;19.004;2023-12-29T02:52:05;32.15;;;18.67;;
59442;SDS011;45247;47.466;19.004;2023-12-29T02:55:32;34.92;;;20.02;;
59442;SDS011;45247;47.466;19.004;2023-12-29T02:59:01;38.25;;;19.73;;
59442;SDS011;45247;47.466;19.004;2023-12-29T03:02:27;37.10;;;18.42;;
59442;SDS011;45247;47.466;19.004;2023-12-29T03:05:54;32.33;;;17.70;;
59442;SDS011;45247;47.466;19.004;2023-12-29T03:09:21;28.35;;;16.95;;
59442;SDS011;45247;47.466;19.004;2023-12-29T03:12:47;32.45;;;16.83;;
59442;SDS011;45247;47.466;19.004;2023-12-29T03:16:11;31.63;;;17.63;;
59442;SDS011;45247;47.466;19.004;2023-12-29T03:19:39;30.55;;;16.90;;
59442;SDS011;45247;47.466;19.004;2023-12-29T03:23:06;29.25;;;17.60;;
59442;SDS011;45247;47.466;19.004;2023-12-29T03:26:32;35.33;;;17.45;;
59442;SDS011;45247;47.466;19.004;2023-12-29T03:29:59;25.92;;;15.38;;
59442;SDS011;45247;47.466;19.004;2023-12-29T03:33:27;26.65;;;15.65;;
59442;SDS011;45247;47.466;19.004;2023-12-29T03:36:54;31.77;;;18.05;;
59442;SDS011;45247;47.466;19.004;2023-12-29T03:40:21;27.17;;;16.35;;
59442;SDS011;45247;47.466;19.004;2023-12-29T03:43:47;28.00;;;16.38;;
59442;SDS011;45247;47.466;19.004;2023-12-29T03:47:14;32.63;;;18.38;;
59442;SDS011;45247;47.466;19.004;2023-12-29T03:50:42;34.70;;;17.80;;
59442;SDS011;45247;47.466;19.004;2023-12-29T03:54:09;39.92;;;21.83;;
59442;SDS011;45247;47.466;19.004;2023-12-29T03:57:37;29.80;;;16.05;;
59442;SDS011;45247;47.466;19.004;2023-12-29T04:01:04;33.20;;;18.63;;
59442;SDS011;45247;47.466;19.004;2023-12-29T04:04:36;30.15;;;17.60;;
59442;SDS011;45247;47.466;19.004;2023-12-29T04:08:05;39.65;;;18.70;;
59442;SDS011;45247;47.466;19.004;2023-12-29T04:11:31;31.15;;;17.90;;
59442;SDS011;45247;47.466;19.004;2023-12-29T04:14:58;29.17;;;16.50;;
59442;SDS011;45247;47.466;19.004;2023-12-29T04:18:25;25.98;;;15.32;;
59442;SDS011;45247;47.466;19.004;2023-12-29T04:21:52;32.70;;;18.88;;
59442;SDS011;45247;47.466;19.004;2023-12-29T04:25:19;32.55;;;18.27;;
59442;SDS011;45247;47.466;19.004;2023-12-29T04:28:46;30.08;;;16.25;;
59442;SDS011;45247;47.466;19.004;2023-12-29T04:32:13;32.97;;;16.35;;
59442;SDS011;45247;47.466;19.004;2023-12-29T04:35:40;33.42;;;18.48;;
59442;SDS011;45247;47.466;19.004;2023-12-29T04:39:07;29.85;;;16.38;;
59442;SDS011;45247;47.466;19.004;2023-12-29T04:42:36;29.67;;;17.33;;
59442;SDS011;45247;47.466;19.004;2023-12-29T04:46:02;26.67;;;15.60;;
59442;SDS011;45247;47.466;19.004;2023-12-29T04:49:29;29.90;;;16.25;;
59442;SDS011;45247;47.466;19.004;2023-12-29T04:52:56;29.02;;;16.33;;
59442;SDS011;45247;47.466;19.004;2023-12-29T04:56:22;27.45;;;15.63;;
59442;SDS011;45247;47.466;19.004;2023-12-29T04:59:50;29.77;;;15.57;;
59442;SDS011;45247;47.466;19.004;2023-12-29T05:03:17;28.25;;;15.80;;
59442;SDS011;45247;47.466;19.004;2023-12-29T05:06:44;28.98;;;16.48;;
59442;SDS011;45247;47.466;19.004;2023-12-29T05:10:11;27.75;;;14.65;;
59442;SDS011;45247;47.466;19.004;2023-12-29T05:13:37;30.13;;;17.90;;
59442;SDS011;45247;47.466;19.004;2023-12-29T05:17:06;30.98;;;17.90;;
59442;SDS011;45247;47.466;19.004;2023-12-29T05:20:33;32.97;;;18.55;;
59442;SDS011;45247;47.466;19.004;2023-12-29T05:23:55;32.15;;;17.27;;
59442;SDS011;45247;47.466;19.004;2023-12-29T05:27:26;34.92;;;18.88;;
59442;SDS011;45247;47.466;19.004;2023-12-29T05:30:53;35.50;;;17.65;;
59442;SDS011;45247;47.466;19.004;2023-12-29T05:34:21;39.22;;;21.50;;
59442;SDS011;45247;47.466;19.004;2023-12-29T05:37:47;41.88;;;21.25;;
59442;SDS011;45247;47.466;19.004;2023-12-29T05:41:14;40.22;;;21.60;;
59442;SDS011;45247;47.466;19.004;2023-12-29T05:44:41;38.70;;;20.95;;
59442;SDS011;45247;47.466;19.004;2023-12-29T05:48:07;42.83;;;23.88;;
59442;SDS011;45247;47.466;19.004;2023-12-29T05:51:35;37.63;;;21.40;;
59442;SDS011;45247;47.466;19.004;2023-12-29T05:55:02;45.22;;;24.17;;
59442;SDS011;45247;47.466;19.004;2023-12-29T05:58:29;39.50;;;23.05;;
59442;SDS011;45247;47.466;19.004;2023-12-29T06:01:56;41.67;;;24.63;;
59442;SDS011;45247;47.466;19.004;2023-12-29T06:05:19;39.45;;;21.88;;
59442;SDS011;45247;47.466;19.004;2023-12-29T06:08:48;40.92;;;23.95;;
59442;SDS011;45247;47.466;19.004;2023-12-29T06:12:15;34.70;;;19.75;;
59442;SDS011;45247;47.466;19.004;2023-12-29T06:15:41;35.38;;;19.88;;
59442;SDS011;45247;47.466;19.004;2023-12-29T06:19:08;35.72;;;22.05;;
59442;SDS011;45247;47.466;19.004;2023-12-29T06:22:38;41.17;;;21.73;;
59442;SDS011;45247;47.466;19.004;2023-12-29T06:26:06;45.38;;;24.52;;
59442;SDS011;45247;47.466;19.004;2023-12-29T06:29:40;50.85;;;27.25;;
59442;SDS011;45247;47.466;19.004;2023-12-29T06:33:07;40.55;;;22.67;;
59442;SDS011;45247;47.466;19.004;2023-12-29T06:36:34;45.65;;;23.77;;
59442;SDS011;45247;47.466;19.004;2023-12-29T06:40:01;47.45;;;25.40;;
59442;SDS011;45247;47.466;19.004;2023-12-29T06:43:29;56.97;;;28.27;;
59442;SDS011;45247;47.466;19.004;2023-12-29T06:46:56;62.47;;;29.50;;
59442;SDS011;45247;47.466;19.004;2023-12-29T06:50:23;40.35;;;23.85;;
59442;SDS011;45247;47.466;19.004;2023-12-29T06:53:50;54.83;;;29.15;;
59442;SDS011;45247;47.466;19.004;2023-12-29T06:57:17;53.33;;;28.70;;
59442;SDS011;45247;47.466;19.004;2023-12-29T07:00:45;59.80;;;31.48;;
59442;SDS011;45247;47.466;19.004;2023-12-29T07:04:12;39.65;;;24.33;;
59442;SDS011;45247;47.466;19.004;2023-12-29T07:07:39;45.70;;;25.55;;
59442;SDS011;45247;47.466;19.004;2023-12-29T07:11:08;63.20;;;26.88;;
59442;SDS011;45247;47.466;19.004;2023-12-29T07:14:36;45.25;;;24.48;;
59442;SDS011;45247;47.466;19.004;2023-12-29T07:18:04;60.45;;;28.13;;
59442;SDS011;45247;47.466;19.004;2023-12-29T07:21:31;55.75;;;27.60;;
59442;SDS011;45247;47.466;19.004;2023-12-29T07:24:58;56.35;;;27.48;;
59442;SDS011;45247;47.466;19.004;2023-12-29T07:28:25;65.97;;;29.35;;
59442;SDS011;45247;47.466;19.004;2023-12-29T07:31:51;59.08;;;28.23;;
59442;SDS011;45247;47.466;19.004;2023-12-29T07:35:20;60.75;;;28.70;;
59442;SDS011;45247;47.466;19.004;2023-12-29T07:38:47;56.72;;;27.08;;
59442;SDS011;45247;47.466;19.004;2023-12-29T07:42:14;57.88;;;29.40;;
59442;SDS011;45247;47.466;19.004;2023-12-29T07:45:41;61.22;;;28.45;;
59442;SDS011;45247;47.466;19.004;2023-12-29T07:49:08;50.45;;;26.67;;
59442;SDS011;45247;47.466;19.004;2023-12-29T07:52:36;58.80;;;27.85;;
59442;SDS011;45247;47.466;19.004;2023-12-29T07:56:03;56.17;;;28.90;;
59442;SDS011;45247;47.466;19.004;2023-12-29T07:59:30;50.45;;;26.27;;
59442;SDS011;45247;47.466;19.004;2023-12-29T08:02:57;46.10;;;23.67;;
59442;SDS011;45247;47.466;19.004;2023-12-29T08:06:23;40.60;;;23.67;;
59442;SDS011;45247;47.466;19.004;2023-12-29T08:09:51;51.75;;;25.90;;
59442;SDS011;45247;47.466;19.004;2023-12-29T08:13:18;43.17;;;24.50;;
59442;SDS011;45247;47.466;19.004;2023-12-29T08:16:45;45.45;;;24.85;;
59442;SDS011;45247;47.466;19.004;2023-12-29T08:20:14;48.85;;;27.30;;
59442;SDS011;45247;47.466;19.004;2023-12-29T08:23:46;50.65;;;25.95;;
59442;SDS011;45247;47.466;19.004;2023-12-29T08:27:14;51.53;;;26.48;;
59442;SDS011;45247;47.466;19.004;2023-12-29T08:30:44;42.35;;;25.48;;
59442;SDS011;45247;47.466;19.004;2023-12-29T08:34:11;52.47;;;25.75;;
59442;SDS011;45247;47.466;19.004;2023-12-29T08:37:38;59.67;;;27.10;;
59442;SDS011;45247;47.466;19.004;2023-12-29T08:41:04;48.10;;;25.02;;
59442;SDS011;45247;47.466;19.004;2023-12-29T08:44:34;50.88;;;28.23;;
59442;SDS011;45247;47.466;19.004;2023-12-29T08:48:00;53.85;;;27.77;;
59442;SDS011;45247;47.466;19.004;2023-12-29T08:51:28;57.22;;;30.02;;
59442;SDS011;45247;47.466;19.004;2023-12-29T08:54:55;56.47;;;29.02;;
59442;SDS011;45247;47.466;19.004;2023-12-29T08:58:22;49.08;;;26.75;;
59442;SDS011;45247;47.466;19.004;2023-12-29T09:01:53;44.80;;;26.38;;
59442;SDS011;45247;47.466;19.004;2023-12-29T09:05:20;47.63;;;27.60;;
59442;SDS011;45247;47.466;19.004;2023-12-29T09:08:47;47.33;;;27.40;;
59442;SDS011;45247;47.466;19.004;2023-12-29T09:12:14;55.58;;;30.30;;
59442;SDS011;45247;47.466;19.004;2023-12-29T09:15:41;49.03;;;28.23;;
59442;SDS011;45247;47.466;19.004;2023-12-29T09:19:11;55.03;;;29.90;;
59442;SDS011;45247;47.466;19.004;2023-12-29T09:22:38;46.85;;;29.10;;
59442;SDS011;45247;47.466;19.004;2023-12-29T09:26:05;52.17;;;30.45;;
59442;SDS011;45247;47.466;19.004;2023-12-29T09:29:32;46.42;;;28.10;;
59442;SDS011;45247;47.466;19.004;2023-12-29T09:32:59;46.47;;;28.20;;
59442;SDS011;45247;47.466;19.004;2023-12-29T09:36:28;42.13;;;26.58;;
59442;SDS011;45247;47.466;19.004;2023-12-29T09:39:55;44.55;;;28.05;;
59442;SDS011;45247;47.466;19.004;2023-12-29T09:43:22;46.35;;;28.42;;
59442;SDS011;45247;47.466;19.004;2023-12-29T09:46:50;50.30;;;30.48;;
59442;SDS011;45247;47.466;19.004;2023-12-29T09:50:19;50.65;;;30.88;;
59442;SDS011;45247;47.466;19.004;2023-12-29T09:53:51;56.78;;;33.70;;
59442;SDS011;45247;47.466;19.004;2023-12-29T09:57:19;56.17;;;34.20;;
59442;SDS011;45247;47.466;19.004;2023-12-29T10:00:49;58.00;;;35.47;;
59442;SDS011;45247;47.466;19.004;2023-12-29T10:04:16;57.47;;;36.50;;
59442;SDS011;45247;47.466;19.004;2023-12-29T10:07:43;54.70;;;35.10;;
59442;SDS011;45247;47.466;19.004;2023-12-29T10:11:14;59.63;;;33.35;;
59442;SDS011;45247;47.466;19.004;2023-12-29T10:14:44;50.22;;;31.38;;
59442;SDS011;45247;47.466;19.004;2023-12-29T10:18:18;49.20;;;30.63;;
59442;SDS011;45247;47.466;19.004;2023-12-29T10:21:55;48.72;;;30.13;;
59442;SDS011;45247;47.466;19.004;2023-12-29T10:25:29;50.33;;;29.92;;
59442;SDS011;45247;47.466;19.004;2023-12-29T10:28:57;47.55;;;28.65;;
59442;SDS011;45247;47.466;19.004;2023-12-29T10:32:24;44.60;;;25.95;;
59442;SDS011;45247;47.466;19.004;2023-12-29T10:35:56;36.97;;;21.45;;
59442;SDS011;45247;47.466;19.004;2023-12-29T10:39:23;30.58;;;18.73;;
59442;SDS011;45247;47.466;19.004;2023-12-29T10:42:55;30.05;;;17.73;;
59442;SDS011;45247;47.466;19.004;2023-12-29T10:46:25;28.23;;;18.17;;
59442;SDS011;45247;47.466;19.004;2023-12-29T10:49:52;29.02;;;17.77;;
59442;SDS011;45247;47.466;19.004;2023-12-29T10:53:24;26.00;;;15.93;;
59442;SDS011;45247;47.466;19.004;2023-12-29T10:57:00;25.42;;;14.93;;
59442;SDS011;45247;47.466;19.004;2023-12-29T11:00:29;30.35;;;17.98;;
59442;SDS011;45247;47.466;19.004;2023-12-29T11:04:00;23.73;;;15.20;;
59442;SDS011;45247;47.466;19.004;2023-12-29T11:07:36;20.33;;;13.80;;
59442;SDS011;45247;47.466;19.004;2023-12-29T11:11:03;19.50;;;13.32;;
59442;SDS011;45247;47.466;19.004;2023-12-29T11:14:33;24.00;;;14.68;;
59442;SDS011;45247;47.466;19.004;2023-12-29T11:18:00;23.25;;;14.13;;
59442;SDS011;45247;47.466;19.004;2023-12-29T11:21:30;23.25;;;12.50;;
59442;SDS011;45247;47.466;19.004;2023-12-29T11:24:57;17.60;;;12.15;;
59442;SDS011;45247;47.466;19.004;2023-12-29T11:28:25;21.70;;;12.95;;
59442;SDS011;45247;47.466;19.004;2023-12-29T11:31:53;22.75;;;11.98;;
59442;SDS011;45247;47.466;19.004;2023-12-29T11:35:26;50.38;;;30.40;;
59442;SDS011;45247;47.466;19.004;2023-12-29T11:39:02;46.70;;;30.40;;
59442;SDS011;45247;47.466;19.004;2023-12-29T11:42:39;47.25;;;30.08;;
59442;SDS011;45247;47.466;19.004;2023-12-29T11:46:06;55.92;;;32.17;;
59442;SDS011;45247;47.466;19.004;2023-12-29T11:50:00;48.15;;;30.63;;
59442;SDS011;45247;47.466;19.004;2023-12-29T11:53:30;50.10;;;31.20;;
59442;SDS011;45247;47.466;19.004;2023-12-29T11:56:58;48.20;;;30.95;;
59442;SDS011;45247;47.466;19.004;2023-12-29T12:00:42;50.20;;;32.60;;
59442;SDS011;45247;47.466;19.004;2023-12-29T12:08:11;45.17;;;28.38;;
59442;SDS011;45247;47.466;19.004;2023-12-29T12:11:52;48.67;;;30.02;;
59442;SDS011;45247;47.466;19.004;2023-12-29T12:19:17;51.08;;;30.35;;
59442;SDS011;45247;47.466;19.004;2023-12-29T12:22:43;43.05;;;28.00;;
59442;SDS011;45247;47.466;19.004;2023-12-29T12:26:12;42.30;;;27.05;;
59442;SDS011;45247;47.466;19.004;2023-12-29T12:29:39;39.63;;;26.70;;
59442;SDS011;45247;47.466;19.004;2023-12-29T12:33:06;41.08;;;26.15;;
59442;SDS011;45247;47.466;19.004;2023-12-29T12:36:33;37.92;;;21.80;;
59442;SDS011;45247;47.466;19.004;2023-12-29T12:40:25;39.97;;;19.95;;
59442;SDS011;45247;47.466;19.004;2023-12-29T12:43:56;32.20;;;20.13;;
59442;SDS011;45247;47.466;19.004;2023-12-29T12:47:25;34.17;;;20.45;;
59442;SDS011;45247;47.466;19.004;2023-12-29T12:51:04;30.30;;;20.02;;
59442;SDS011;45247;47.466;19.004;2023-12-29T12:54:31;36.13;;;20.98;;
59442;SDS011;45247;47.466;19.004;2023-12-29T12:58:02;25.58;;;18.30;;
59442;SDS011;45247;47.466;19.004;2023-12-29T13:01:29;31.60;;;19.48;;
59442;SDS011;45247;47.466;19.004;2023-12-29T13:05:02;28.75;;;18.20;;
59442;SDS011;45247;47.466;19.004;2023-12-29T13:08:31;33.13;;;18.38;;
59442;SDS011;45247;47.466;19.004;2023-12-29T13:12:08;32.63;;;16.98;;
59442;SDS011;45247;47.466;19.004;2023-12-29T13:15:47;23.42;;;14.73;;
59442;SDS011;45247;47.466;19.004;2023-12-29T13:19:15;21.15;;;14.38;;
59442;SDS011;45247;47.466;19.004;2023-12-29T13:22:41;23.55;;;14.25;;
59442;SDS011;45247;47.466;19.004;2023-12-29T13:26:10;22.90;;;14.35;;
59442;SDS011;45247;47.466;19.004;2023-12-29T13:29:39;20.17;;;12.75;;
59442;SDS011;45247;47.466;19.004;2023-12-29T13:33:07;20.38;;;13.60;;
59442;SDS011;45247;47.466;19.004;2023-12-29T13:36:40;20.27;;;13.02;;
59442;SDS011;45247;47.466;19.004;2023-12-29T13:40:13;20.67;;;12.93;;
59442;SDS011;45247;47.466;19.004;2023-12-29T13:43:43;23.48;;;13.77;;
59442;SDS011;45247;47.466;19.004;2023-12-29T13:47:11;19.67;;;13.50;;
59442;SDS011;45247;47.466;19.004;2023-12-29T13:50:39;23.10;;;14.77;;
59442;SDS011;45247;47.466;19.004;2023-12-29T13:54:10;23.10;;;14.55;;
59442;SDS011;45247;47.466;19.004;2023-12-29T13:57:37;26.80;;;15.18;;
59442;SDS011;45247;47.466;19.004;2023-12-29T14:01:06;23.45;;;15.93;;
59442;SDS011;45247;47.466;19.004;2023-12-29T14:08:50;25.02;;;15.68;;
59442;SDS011;45247;47.466;19.004;2023-12-29T14:12:23;24.77;;;16.75;;
59442;SDS011;45247;47.466;19.004;2023-12-29T14:15:50;25.85;;;17.55;;
59442;SDS011;45247;47.466;19.004;2023-12-29T14:19:19;31.02;;;17.98;;
59442;SDS011;45247;47.466;19.004;2023-12-29T14:23:03;27.50;;;17.58;;
59442;SDS011;45247;47.466;19.004;2023-12-29T14:26:40;28.08;;;17.52;;
59442;SDS011;45247;47.466;19.004;2023-12-29T14:30:17;31.42;;;18.40;;
59442;SDS011;45247;47.466;19.004;2023-12-29T14:33:45;28.92;;;18.08;;
59442;SDS011;45247;47.466;19.004;2023-12-29T14:37:17;27.50;;;17.63;;
59442;SDS011;45247;47.466;19.004;2023-12-29T14:40:44;24.88;;;17.23;;
59442;SDS011;45247;47.466;19.004;2023-12-29T14:44:12;27.27;;;18.13;;
59442;SDS011;45247;47.466;19.004;2023-12-29T14:47:39;33.60;;;19.83;;
59442;SDS011;45247;47.466;19.004;2023-12-29T14:51:07;32.20;;;19.65;;
59442;SDS011;45247;47.466;19.004;2023-12-29T14:54:34;28.13;;;19.42;;
59442;SDS011;45247;47.466;19.004;2023-12-29T14:58:00;30.38;;;19.95;;
59442;SDS011;45247;47.466;19.004;2023-12-29T15:01:32;31.60;;;20.05;;
59442;SDS011;45247;47.466;19.004;2023-12-29T15:05:02;39.22;;;23.58;;
59442;SDS011;45247;47.466;19.004;2023-12-29T15:08:31;36.22;;;23.23;;
59442;SDS011;45247;47.466;19.004;2023-12-29T15:12:00;35.95;;;22.55;;
59442;SDS011;45247;47.466;19.004;2023-12-29T15:15:27;36.92;;;23.63;;
59442;SDS011;45247;47.466;19.004;2023-12-29T15:18:53;34.42;;;22.67;;
59442;SDS011;45247;47.466;19.004;2023-12-29T15:22:20;36.72;;;21.33;;
59442;SDS011;45247;47.466;19.004;2023-12-29T15:25:48;39.92;;;22.25;;
59442;SDS011;45247;47.466;19.004;2023-12-29T15:29:15;29.58;;;18.98;;
59442;SDS011;45247;47.466;19.004;2023-12-29T15:32:44;36.10;;;19.80;;
59442;SDS011;45247;47.466;19.004;2023-12-29T15:36:11;32.35;;;18.42;;
59442;SDS011;45247;47.466;19.004;2023-12-29T15:39:40;27.73;;;19.00;;
59442;SDS011;45247;47.466;19.004;2023-12-29T15:43:08;35.88;;;21.60;;
59442;SDS011;45247;47.466;19.004;2023-12-29T15:46:34;33.97;;;19.50;;
59442;SDS011;45247;47.466;19.004;2023-12-29T15:50:01;34.15;;;20.55;;
59442;SDS011;45247;47.466;19.004;2023-12-29T15:53:30;35.17;;;21.00;;
59442;SDS011;45247;47.466;19.004;2023-12-29T15:56:58;32.15;;;20.60;;
59442;SDS011;45247;47.466;19.004;2023-12-29T16:00:28;34.30;;;22.13;;
59442;SDS011;45247;47.466;19.004;2023-12-29T16:03:55;42.67;;;24.73;;
59442;SDS011;45247;47.466;19.004;2023-12-29T16:07:22;33.63;;;20.80;;
59442;SDS011;45247;47.466;19.004;2023-12-29T16:10:48;39.92;;;22.88;;
59442;SDS011;45247;47.466;19.004;2023-12-29T16:14:15;37.42;;;23.10;;
59442;SDS011;45247;47.466;19.004;2023-12-29T16:17:43;41.10;;;23.77;;
59442;SDS011;45247;47.466;19.004;2023-12-29T16:21:11;42.90;;;24.75;;
59442;SDS011;45247;47.466;19.004;2023-12-29T16:24:38;47.90;;;27.63;;
59442;SDS011;45247;47.466;19.004;2023-12-29T16:28:04;48.88;;;30.23;;
59442;SDS011;45247;47.466;19.004;2023-12-29T16:31:32;48.92;;;28.73;;
59442;SDS011;45247;47.466;19.004;2023-12-29T16:35:01;44.10;;;27.23;;
59442;SDS011;45247;47.466;19.004;2023-12-29T16:38:33;46.92;;;27.63;;
59442;SDS011;45247;47.466;19.004;2023-12-29T16:42:00;48.35;;;26.88;;
59442;SDS011;45247;47.466;19.004;2023-12-29T16:45:27;43.20;;;26.52;;
59442;SDS011;45247;47.466;19.004;2023-12-29T16:48:54;48.55;;;28.60;;
59442;SDS011;45247;47.466;19.004;2023-12-29T16:52:23;45.40;;;29.35;;
59442;SDS011;45247;47.466;19.004;2023-12-29T16:55:50;43.97;;;27.75;;
59442;SDS011;45247;47.466;19.004;2023-12-29T16:59:18;44.17;;;28.05;;
59442;SDS011;45247;47.466;19.004;2023-12-29T17:02:48;43.67;;;26.75;;
59442;SDS011;45247;47.466;19.004;2023-12-29T17:06:15;51.88;;;31.88;;
59442;SDS011;45247;47.466;19.004;2023-12-29T17:09:43;55.80;;;32.28;;
59442;SDS011;45247;47.466;19.004;2023-12-29T17:13:10;60.15;;;33.47;;
59442;SDS011;45247;47.466;19.004;2023-12-29T17:16:38;60.38;;;34.20;;
59442;SDS011;45247;47.466;19.004;2023-12-29T17:20:05;53.80;;;33.88;;
59442;SDS011;45247;47.466;19.004;2023-12-29T17:23:32;55.08;;;33.75;;
59442;SDS011;45247;47.466;19.004;2023-12-29T17:27:06;55.70;;;34.08;;
59442;SDS011;45247;47.466;19.004;2023-12-29T17:30:33;51.60;;;29.42;;
59442;SDS011;45247;47.466;19.004;2023-12-29T17:34:00;49.88;;;29.00;;
59442;SDS011;45247;47.466;19.004;2023-12-29T17:37:27;46.63;;;29.02;;
59442;SDS011;45247;47.466;19.004;2023-12-29T17:40:54;52.05;;;29.33;;
59442;SDS011;45247;47.466;19.004;2023-12-29T17:44:22;49.17;;;28.30;;
59442;SDS011;45247;47.466;19.004;2023-12-29T17:47:48;46.58;;;26.20;;
59442;SDS011;45247;47.466;19.004;2023-12-29T17:51:18;46.95;;;26.45;;
59442;SDS011;45247;47.466;19.004;2023-12-29T17:54:45;42.85;;;25.17;;
59442;SDS011;45247;47.466;19.004;2023-12-29T17:58:11;49.35;;;27.27;;
59442;SDS011;45247;47.466;19.004;2023-12-29T18:01:39;43.65;;;26.98;;
59442;SDS011;45247;47.466;19.004;2023-12-29T18:05:06;46.28;;;28.40;;
59442;SDS011;45247;47.466;19.004;2023-12-29T18:08:35;51.72;;;29.90;;
59442;SDS011;45247;47.466;19.004;2023-12-29T18:12:05;56.00;;;31.65;;
59442;SDS011;45247;47.466;19.004;2023-12-29T18:15:32;61.08;;;34.58;;
59442;SDS011;45247;47.466;19.004;2023-12-29T18:19:01;65.43;;;35.97;;
59442;SDS011;45247;47.466;19.004;2023-12-29T18:22:28;70.75;;;35.50;;
59442;SDS011;45247;47.466;19.004;2023-12-29T18:25:55;61.67;;;34.85;;
59442;SDS011;45247;47.466;19.004;2023-12-29T18:29:22;80.85;;;37.53;;
59442;SDS011;45247;47.466;19.004;2023-12-29T18:32:48;59.90;;;34.65;;
59442;SDS011;45247;47.466;19.004;2023-12-29T18:36:18;57.80;;;32.15;;
59442;SDS011;45247;47.466;19.004;2023-12-29T18:39:46;56.35;;;32.20;;
59442;SDS011;45247;47.466;19.004;2023-12-29T18:43:12;53.97;;;30.67;;
59442;SDS011;45247;47.466;19.004;2023-12-29T18:46:39;50.50;;;27.10;;
59442;SDS011;45247;47.466;19.004;2023-12-29T18:50:06;46.13;;;25.00;;
59442;SDS011;45247;47.466;19.004;2023-12-29T18:53:34;36.42;;;22.33;;
59442;SDS011;45247;47.466;19.004;2023-12-29T18:57:01;44.88;;;24.30;;
59442;SDS011;45247;47.466;19.004;2023-12-29T19:00:28;49.30;;;28.33;;
59442;SDS011;45247;47.466;19.004;2023-12-29T19:03:55;110.32;;;57.13;;
59442;SDS011;45247;47.466;19.004;2023-12-29T19:07:22;97.03;;;50.60;;
59442;SDS011;45247;47.466;19.004;2023-12-29T19:10:52;86.60;;;47.45;;
59442;SDS011;45247;47.466;19.004;2023-12-29T19:14:19;96.32;;;50.38;;
59442;SDS011;45247;47.466;19.004;2023-12-29T19:17:45;102.90;;;46.63;;
59442;SDS011;45247;47.466;19.004;2023-12-29T19:21:12;78.70;;;41.67;;
59442;SDS011;45247;47.466;19.004;2023-12-29T19:24:39;72.45;;;40.33;;
59442;SDS011;45247;47.466;19.004;2023-12-29T19:28:08;81.93;;;41.78;;
59442;SDS011;45247;47.466;19.004;2023-12-29T19:31:34;66.43;;;37.03;;
59442;SDS011;45247;47.466;19.004;2023-12-29T19:35:01;78.80;;;41.95;;
59442;SDS011;45247;47.466;19.004;2023-12-29T19:38:30;71.55;;;38.75;;
59442;SDS011;45247;47.466;19.004;2023-12-29T19:41:57;56.40;;;32.28;;
59442;SDS011;45247;47.466;19.004;2023-12-29T19:45:26;48.22;;;28.27;;
59442;SDS011;45247;47.466;19.004;2023-12-29T19:48:52;55.38;;;32.60;;
59442;SDS011;45247;47.466;19.004;2023-12-29T19:52:19;60.65;;;33.80;;
59442;SDS011;45247;47.466;19.004;2023-12-29T19:55:46;60.85;;;34.95;;
59442;SDS011;45247;47.466;19.004;2023-12-29T19:59:13;55.85;;;33.67;;
59442;SDS011;45247;47.466;19.004;2023-12-29T20:02:42;52.67;;;30.77;;
59442;SDS011;45247;47.466;19.004;2023-12-29T20:06:11;56.85;;;31.15;;
59442;SDS011;45247;47.466;19.004;2023-12-29T20:09:43;61.17;;;33.72;;
59442;SDS011;45247;47.466;19.004;2023-12-29T20:13:10;49.83;;;29.45;;